首页
METAR-TAF:

METAR-TAF

机场 :

山胡桃, 北卡罗来纳州, 美国

纬度: 35-44-32N, 经度: 081-22-56W, 海拔: 362米

当前天气观测

该预报发布于58分钟前的23:53 UTC
静风
温度 14°C
湿度 94%
气压 1019 hPa
能見度: 16.1公里
散云层高于9000英尺
阴天层高于11000英尺

METAR: KHKY 212353Z 00000KT 10SM SCT090 OVC110 14/13 A3010 RMK AO2 SLP184 T01390128 10161 20094 53010

时间: 19:51 (00:51 UTC)

预报

该预报发布于1小时和19分钟前的23:32 UTC
预报有效从22日的 00点(UTC)到 22日的 24点(UTC)
风速2节,风向多变
能見度: 10公里
多云层高于6000英尺
附近有阵雨
从 22日的 0200点(UTC)
风速3节,风向东北
能見度: 6.4公里
阴天层高于2300英尺
轻雾, 附近有阵雨
从 22日的 0500点(UTC)
风速4节,风向东北
能見度: 4.8公里
阴天层高于1000英尺
轻雾, 附近有阵雨
从 22日的 1200点(UTC)
风速6节,风向东北
能見度: 6.4公里
阴天层高于2300英尺
小阵雨, 轻雾
从 22日的 1500点(UTC)
风速6节,风向东北
能見度: 4.8公里
阴天层高于1300英尺
小阵雨
从 22日的 2100点(UTC)
风速6节,风向东北
能見度: 2.4公里
阴天层高于500英尺
小阵雨, 轻雾

TAF: KHKY 212332Z 2200/2224 VRB02KT P6SM VCSH BKN060 FM220200 05003KT 4SM BR VCSH OVC023 FM220500 05004KT 3SM BR VCSH OVC010 FM221200 05006KT 4SM -SHRA BR OVC023 FM221500 05006KT 3SM -SHRA OVC013 FM222100 05006KT 1 1/2SM -SHRA BR OVC005

超过4000个机场的气象观测和天气预报(METAR&TAF报告)。

可查询的气象台以黄色和红色小点在地图上表示。

将鼠标移到小点上方,可查看气象台名称。

然后点击查看天气观测和预报。

如需切换地图:点击带黑十字的绿色按钮放大地图;点击带横线的绿色按钮缩小地图;或者点击绿色箭头查看邻近地区的地图。


METAR-TAF: